Time;durP1;ratioP1;P1;durP2;ratioP2;P2;SDS_P1;SDS_P2;PMS_P1;PMS_P2;Temp;Humidity;BMP_temperature;BMP_pressure;BME280_temperature;BME280_humidity;BME280_pressure;Samples;Min_cycle;Max_cycle;Signal;HPM_P1;HPM_P2
2022/12/11 00:01:28;;;;;;;54.40;22.30;;;-0.60;99.90;;;;;;5058633;28;20048;-81
2022/12/11 00:03:53;;;;;;;64.10;23.05;;;-0.60;99.90;;;;;;5095569;28;20043;-81
2022/12/11 00:06:21;;;;;;;66.07;23.33;;;-0.60;99.90;;;;;;5078556;28;20096;-81
2022/12/11 00:08:52;;;;;;;60.60;24.25;;;-0.60;99.90;;;;;;5072193;28;20052;-81
2022/12/11 00:11:18;;;;;;;59.22;24.08;;;-0.50;99.90;;;;;;5074969;28;20131;-81
2022/12/11 00:13:44;;;;;;;66.63;24.83;;;-0.50;99.90;;;;;;5072327;28;20040;-81
2022/12/11 00:16:10;;;;;;;64.22;25.45;;;-0.60;99.90;;;;;;5052896;28;20165;-81
2022/12/11 00:18:36;;;;;;;68.15;26.27;;;-0.50;99.90;;;;;;5079066;28;20126;-81
2022/12/11 00:21:04;;;;;;;64.93;25.02;;;-0.50;99.90;;;;;;5084103;28;20127;-83
2022/12/11 00:23:30;;;;;;;81.00;24.90;;;0.10;99.90;;;;;;5091907;28;20109;-81
2022/12/11 00:25:56;;;;;;;59.17;22.67;;;-0.50;99.90;;;;;;5055632;28;20463;-82
2022/12/11 00:28:22;;;;;;;66.78;23.55;;;-0.50;99.90;;;;;;5081532;28;20094;-81
2022/12/11 00:30:48;;;;;;;65.38;23.05;;;-0.50;99.90;;;;;;5074898;28;20074;-81
2022/12/11 00:33:14;;;;;;;63.20;23.42;;;-0.20;99.90;;;;;;5086174;28;20090;-81
2022/12/11 00:35:42;;;;;;;70.00;23.63;;;-0.50;99.90;;;;;;5066441;28;20043;-81
2022/12/11 00:38:08;;;;;;;67.45;22.48;;;-0.50;99.90;;;;;;5085105;28;20062;-81
2022/12/11 00:40:35;;;;;;;72.25;22.30;;;-0.50;99.90;;;;;;5091600;28;20044;-81
2022/12/11 00:43:02;;;;;;;54.67;20.98;;;-0.50;99.90;;;;;;5077698;28;20127;-81
2022/12/11 00:45:27;;;;;;;54.40;21.70;;;-0.40;99.90;;;;;;5059285;28;20086;-81
2022/12/11 00:47:53;;;;;;;61.47;22.02;;;-0.50;99.90;;;;;;5086222;28;20079;-81
2022/12/11 00:50:19;;;;;;;57.63;21.15;;;-0.40;99.90;;;;;;5075439;28;20044;-81
2022/12/11 00:52:44;;;;;;;66.88;22.00;;;0.00;99.90;;;;;;5088504;28;20036;-81
2022/12/11 00:55:10;;;;;;;58.78;21.33;;;-0.40;99.90;;;;;;5090362;28;20407;-82
2022/12/11 00:57:36;;;;;;;68.88;21.52;;;-0.40;99.90;;;;;;5092794;28;20055;-81
2022/12/11 01:00:05;;;;;;;64.65;22.58;;;-0.40;99.90;;;;;;5057484;28;20160;-81
2022/12/11 01:02:32;;;;;;;63.75;22.80;;;-0.40;99.90;;;;;;5081809;28;20044;-81
2022/12/11 01:04:57;;;;;;;58.55;21.52;;;-0.40;99.90;;;;;;5089373;28;20039;-81
2022/12/11 01:07:23;;;;;;;62.58;22.48;;;-0.40;99.90;;;;;;5059083;28;20048;-81
2022/12/11 01:12:33;;;;;;;57.55;21.10;;;-0.40;99.90;;;;;;5091232;28;20044;-81
2022/12/11 01:14:59;;;;;;;64.03;22.13;;;0.00;99.90;;;;;;5090023;28;20471;-81
2022/12/11 01:17:24;;;;;;;74.63;23.60;;;-0.30;99.90;;;;;;5091641;28;20127;-81
2022/12/11 01:19:53;;;;;;;69.78;22.75;;;-0.10;99.90;;;;;;5088781;28;20046;-81
2022/12/11 01:22:18;;;;;;;64.28;22.58;;;-0.30;99.90;;;;;;5084518;28;20040;-82
2022/12/11 01:24:44;;;;;;;70.57;22.52;;;-0.30;99.90;;;;;;5074910;28;20086;-82
2022/12/11 01:27:10;;;;;;;66.63;22.70;;;-0.30;99.90;;;;;;5060140;28;20062;-81
2022/12/11 01:29:35;;;;;;;63.72;22.13;;;0.40;99.90;;;;;;5070590;28;20047;-81
2022/12/11 01:32:01;;;;;;;66.90;22.90;;;0.60;99.90;;;;;;5076891;28;20434;-80
2022/12/11 01:34:32;;;;;;;62.15;22.70;;;-0.30;99.90;;;;;;5089964;28;20044;-81
2022/12/11 01:36:58;;;;;;;69.80;21.92;;;-0.20;99.90;;;;;;5084050;28;20066;-81
2022/12/11 01:39:24;;;;;;;63.25;21.92;;;-0.20;99.90;;;;;;5072447;28;20071;-81
2022/12/11 01:41:49;;;;;;;70.88;23.05;;;-0.20;99.90;;;;;;5058460;28;20078;-81
2022/12/11 01:44:15;;;;;;;74.65;23.02;;;0.10;99.90;;;;;;5075261;28;20093;-81
2022/12/11 01:46:41;;;;;;;66.70;22.40;;;-0.20;99.90;;;;;;5101134;28;20047;-81
2022/12/11 01:49:11;;;;;;;71.97;22.92;;;-0.20;99.90;;;;;;5075574;28;20044;-81
2022/12/11 01:51:54;;;;;;;65.38;21.85;;;-0.20;99.90;;;;;;5071544;28;20078;-82
2022/12/11 01:54:23;;;;;;;66.03;23.02;;;-0.20;99.90;;;;;;5064028;28;20473;-81
2022/12/11 01:56:51;;;;;;;71.43;23.02;;;0.40;99.90;;;;;;5088176;28;20117;-82
2022/12/11 01:59:21;;;;;;;75.18;23.13;;;-0.20;99.90;;;;;;5063503;28;20105;-81
2022/12/11 02:02:01;;;;;;;74.47;23.15;;;0.00;99.90;;;;;;5074650;28;20377;-81
2022/12/11 02:04:28;;;;;;;66.05;23.20;;;-0.20;99.90;;;;;;5082990;28;20067;-80
2022/12/11 02:06:54;;;;;;;61.38;21.90;;;-0.20;99.90;;;;;;5076910;28;20055;-81
2022/12/11 02:09:31;;;;;;;64.32;22.65;;;0.50;99.90;;;;;;5079589;28;20086;-81
2022/12/11 02:12:14;;;;;;;74.80;23.55;;;-0.10;99.90;;;;;;5081894;28;20383;-80
2022/12/11 02:15:01;;;;;;;64.10;22.23;;;-0.10;99.90;;;;;;5090543;28;20114;-82
2022/12/11 02:17:42;;;;;;;80.13;23.98;;;-0.10;99.90;;;;;;5086103;28;20054;-82
2022/12/11 02:20:23;;;;;;;69.25;23.80;;;-0.10;99.90;;;;;;5077945;28;20043;-81
2022/12/11 02:23:10;;;;;;;68.90;22.98;;;-0.10;99.90;;;;;;5086836;28;20054;-81
2022/12/11 02:25:45;;;;;;;62.33;22.25;;;-0.10;99.90;;;;;;5069032;28;20048;-81
2022/12/11 02:28:45;;;;;;;73.47;23.58;;;-0.10;99.90;;;;;;5089294;28;20461;-81
2022/12/11 02:31:19;;;;;;;61.50;22.30;;;-0.10;99.90;;;;;;5083609;28;20101;-81
2022/12/11 02:33:55;;;;;;;59.45;22.10;;;-0.10;99.90;;;;;;5093471;28;20052;-81
2022/12/11 02:36:23;;;;;;;58.92;21.10;;;0.70;99.90;;;;;;5096130;28;20058;-82
2022/12/11 02:38:52;;;;;;;68.68;21.25;;;-0.10;99.90;;;;;;5094019;28;20116;-81
2022/12/11 02:41:21;;;;;;;68.00;21.83;;;0.00;99.90;;;;;;5092575;28;20051;-81
2022/12/11 02:43:49;;;;;;;57.90;21.15;;;-0.10;99.90;;;;;;5091292;28;20044;-81
2022/12/11 02:46:17;;;;;;;61.38;20.88;;;-0.10;99.90;;;;;;5076550;28;20055;-80
2022/12/11 02:48:44;;;;;;;66.13;21.27;;;0.00;99.90;;;;;;5082945;28;20051;-81
2022/12/11 02:51:12;;;;;;;60.03;21.42;;;0.00;99.90;;;;;;5094307;28;20043;-81
2022/12/11 02:53:40;;;;;;;64.75;22.52;;;-0.10;99.90;;;;;;5095400;28;20425;-81
2022/12/11 02:56:15;;;;;;;63.72;21.58;;;0.00;99.90;;;;;;5094378;28;20058;-82
2022/12/11 02:58:58;;;;;;;64.30;21.65;;;0.00;99.90;;;;;;5085267;28;20055;-82
2022/12/11 03:01:25;;;;;;;73.82;22.25;;;0.00;99.90;;;;;;5080396;28;20093;-81
2022/12/11 03:03:52;;;;;;;64.38;21.20;;;0.00;99.90;;;;;;5105049;28;20050;-80
2022/12/11 03:06:23;;;;;;;66.97;22.85;;;0.00;99.90;;;;;;5096510;28;20055;-82
2022/12/11 03:08:50;;;;;;;76.00;23.70;;;0.80;99.90;;;;;;5081163;28;20054;-81
2022/12/11 03:11:16;;;;;;;76.47;23.10;;;0.00;99.90;;;;;;5079627;28;20086;-81
2022/12/11 03:13:42;;;;;;;72.80;23.35;;;0.20;99.90;;;;;;5077468;28;20070;-82
2022/12/11 03:16:25;;;;;;;64.47;22.55;;;0.20;99.90;;;;;;5080211;28;20115;-81
2022/12/11 03:19:22;;;;;;;63.88;21.75;;;0.00;99.90;;;;;;5085471;28;20125;-81
2022/12/11 03:21:57;;;;;;;63.88;23.15;;;0.00;99.90;;;;;;5089244;28;20079;-82
2022/12/11 03:24:36;;;;;;;70.00;23.33;;;0.00;99.90;;;;;;5097810;28;20047;-82
2022/12/11 03:27:09;;;;;;;67.97;22.02;;;0.00;99.90;;;;;;5090944;28;20058;-82
2022/12/11 03:29:39;;;;;;;71.22;23.02;;;0.00;99.90;;;;;;5085020;28;20122;-81
2022/12/11 03:32:12;;;;;;;60.47;22.83;;;0.00;99.90;;;;;;5077350;28;20051;-81
2022/12/11 03:35:14;;;;;;;78.93;23.63;;;0.10;99.90;;;;;;5089697;28;20043;-81
2022/12/11 03:37:41;;;;;;;63.75;22.60;;;0.00;99.90;;;;;;5022513;28;20055;-82
2022/12/11 03:40:12;;;;;;;64.93;22.58;;;0.00;99.90;;;;;;5093856;28;20055;-83
2022/12/11 03:42:40;;;;;;;70.53;22.35;;;0.10;99.90;;;;;;5086677;28;20578;-82
2022/12/11 03:45:07;;;;;;;63.55;22.45;;;0.10;99.90;;;;;;5105596;28;20061;-81
2022/12/11 03:47:33;;;;;;;67.28;22.40;;;0.10;99.90;;;;;;5077747;28;20116;-81
2022/12/11 03:50:02;;;;;;;57.95;21.17;;;0.10;99.90;;;;;;5076991;28;20044;-81
2022/12/11 03:52:28;;;;;;;65.63;22.92;;;0.70;99.90;;;;;;5076881;28;20503;-81
2022/12/11 03:54:59;;;;;;;68.35;22.55;;;0.30;99.90;;;;;;5086988;28;20052;-81
2022/12/11 03:57:29;;;;;;;66.65;23.13;;;0.10;99.90;;;;;;5086023;28;20412;-81
2022/12/11 03:59:56;;;;;;;71.70;23.27;;;0.10;99.90;;;;;;5076260;28;20036;-83
2022/12/11 04:02:22;;;;;;;72.28;24.08;;;0.10;99.90;;;;;;5076608;28;20194;-82
2022/12/11 04:04:47;;;;;;;67.65;22.83;;;0.10;99.90;;;;;;5090660;28;20123;-83
2022/12/11 04:07:13;;;;;;;77.35;23.30;;;0.10;99.90;;;;;;5059011;28;20071;-83
2022/12/11 04:09:39;;;;;;;71.30;24.25;;;0.10;99.90;;;;;;5090398;28;20051;-81
2022/12/11 04:12:04;;;;;;;79.90;24.10;;;0.10;99.90;;;;;;5067790;28;20054;-82
2022/12/11 04:24:13;;;;;;;67.55;23.13;;;0.10;99.90;;;;;;5096310;28;20055;-82
2022/12/11 04:25:29;;;;;;;68.93;23.00;;;0.10;99.90;;;;;;5082542;28;20051;-81
2022/12/11 04:27:55;;;;;;;74.85;23.45;;;0.10;99.90;;;;;;5076075;28;20073;-80
2022/12/11 04:30:22;;;;;;;68.40;24.10;;;0.60;99.90;;;;;;5079078;28;20068;-81
2022/12/11 04:32:49;;;;;;;82.63;24.45;;;0.10;99.90;;;;;;5075713;28;20121;-82
2022/12/11 04:35:15;;;;;;;74.70;23.73;;;0.10;99.90;;;;;;5085929;28;20056;-83
2022/12/11 04:37:41;;;;;;;72.85;25.63;;;0.20;99.90;;;;;;5072589;28;20044;-82
2022/12/11 04:40:10;;;;;;;72.70;25.00;;;0.10;99.90;;;;;;5087595;28;20050;-82
2022/12/11 04:42:36;;;;;;;78.50;23.73;;;0.20;99.90;;;;;;5095709;28;20049;-82
2022/12/11 04:45:03;;;;;;;76.65;25.05;;;0.20;99.90;;;;;;5080872;28;20048;-82
2022/12/11 04:47:28;;;;;;;84.80;25.88;;;0.20;99.90;;;;;;5095410;28;20048;-82
2022/12/11 04:49:54;;;;;;;83.55;25.88;;;1.10;99.90;;;;;;5084704;28;20368;-82
2022/12/11 04:52:20;;;;;;;80.88;25.13;;;0.20;99.90;;;;;;5095003;28;20083;-82
2022/12/11 04:54:46;;;;;;;85.38;26.15;;;0.20;99.90;;;;;;5076977;28;20066;-81
2022/12/11 04:57:11;;;;;;;75.03;25.02;;;0.20;99.90;;;;;;5075524;28;20492;-81
2022/12/11 04:59:37;;;;;;;72.05;24.02;;;0.20;99.90;;;;;;5090481;28;20040;-81
2022/12/11 05:02:03;;;;;;;77.38;23.25;;;0.20;99.90;;;;;;5090550;28;20044;-82
2022/12/11 05:04:33;;;;;;;79.60;24.80;;;0.20;99.90;;;;;;5091314;28;20051;-81
2022/12/11 05:07:00;;;;;;;87.15;26.58;;;0.20;99.90;;;;;;5094907;28;20046;-82
2022/12/11 05:09:26;;;;;;;79.82;24.52;;;0.60;99.90;;;;;;5080357;28;20048;-82
2022/12/11 05:11:52;;;;;;;79.10;24.38;;;0.20;99.90;;;;;;5074743;28;20445;-81
2022/12/11 05:14:18;;;;;;;85.55;25.45;;;0.20;99.90;;;;;;5089716;28;20404;-81
2022/12/11 05:16:43;;;;;;;70.80;23.92;;;0.20;99.90;;;;;;5093300;28;20044;-81
2022/12/11 05:19:09;;;;;;;73.25;23.63;;;0.90;99.90;;;;;;5071693;28;20042;-81
2022/12/11 05:21:35;;;;;;;71.35;23.67;;;0.20;99.90;;;;;;5077758;28;20040;-81
2022/12/11 05:24:01;;;;;;;76.72;24.08;;;0.30;99.90;;;;;;5066711;28;20042;-82
2022/12/11 05:26:27;;;;;;;76.68;24.48;;;0.80;99.90;;;;;;5082070;28;20129;-82
2022/12/11 05:28:55;;;;;;;71.57;22.90;;;0.90;99.90;;;;;;5092779;28;20035;-82
2022/12/11 05:31:23;;;;;;;71.90;22.60;;;0.20;99.90;;;;;;5075939;28;20057;-82
2022/12/11 05:33:49;;;;;;;74.30;23.27;;;0.20;99.90;;;;;;5090557;28;20431;-81
2022/12/11 05:36:27;;;;;;;74.07;23.48;;;0.20;99.90;;;;;;5074917;28;20052;-82
2022/12/11 05:38:53;;;;;;;76.10;23.35;;;0.30;99.90;;;;;;5085438;28;20036;-82
2022/12/11 05:41:21;;;;;;;72.57;22.88;;;0.20;99.90;;;;;;5091335;28;20060;-82
2022/12/11 05:43:47;;;;;;;68.40;21.92;;;0.20;99.90;;;;;;5074847;28;20498;-81
2022/12/11 05:46:24;;;;;;;59.90;22.23;;;0.20;99.90;;;;;;5082142;28;20052;-81
2022/12/11 05:48:52;;;;;;;63.67;22.23;;;0.60;99.90;;;;;;5089287;28;20044;-81
2022/12/11 05:51:19;;;;;;;66.63;21.98;;;0.70;99.90;;;;;;5085986;28;20134;-82
2022/12/11 05:53:46;;;;;;;67.20;22.05;;;0.20;99.90;;;;;;5075031;28;20135;-82
2022/12/11 05:56:13;;;;;;;64.22;21.73;;;0.20;99.90;;;;;;5074455;28;20137;-82
2022/12/11 05:58:40;;;;;;;62.03;21.70;;;0.20;99.90;;;;;;5089331;28;20472;-81
2022/12/11 06:01:11;;;;;;;57.25;22.05;;;0.20;99.90;;;;;;5093195;28;20048;-81
2022/12/11 06:03:37;;;;;;;46.67;16.50;;;0.20;99.90;;;;;;5091372;28;20051;-81
2022/12/11 06:06:04;;;;;;;61.10;21.48;;;0.20;99.90;;;;;;5074439;28;20033;-83
2022/12/11 06:08:31;;;;;;;63.35;22.52;;;0.30;99.90;;;;;;5085735;28;20051;-81
2022/12/11 06:10:57;;;;;;;56.35;19.35;;;0.30;99.90;;;;;;5079987;28;20051;-81
2022/12/11 06:13:22;;;;;;;53.15;20.98;;;0.60;99.90;;;;;;5093517;28;20061;-80
2022/12/11 06:15:48;;;;;;;57.83;21.20;;;0.40;99.90;;;;;;5074174;28;20369;-81
2022/12/11 06:18:14;;;;;;;57.45;22.30;;;0.30;99.90;;;;;;5102880;28;20043;-81
2022/12/11 06:20:40;;;;;;;60.67;22.70;;;1.20;99.90;;;;;;5063562;28;20052;-84
2022/12/11 06:23:05;;;;;;;60.80;22.17;;;0.30;99.90;;;;;;5093890;28;20101;-82
2022/12/11 06:25:31;;;;;;;73.38;23.48;;;1.00;99.90;;;;;;5070575;28;20063;-81
2022/12/11 06:27:57;;;;;;;65.30;22.38;;;0.30;99.90;;;;;;5081326;28;20043;-81
2022/12/11 06:30:23;;;;;;;60.47;22.77;;;1.00;99.90;;;;;;5082200;28;20499;-81
2022/12/11 06:32:49;;;;;;;57.97;21.15;;;0.30;99.90;;;;;;5077544;28;20049;-82
2022/12/11 06:35:14;;;;;;;54.85;21.90;;;0.30;99.90;;;;;;5103044;28;20048;-82
2022/12/11 06:37:40;;;;;;;61.10;23.48;;;0.30;99.90;;;;;;5056322;28;20044;-82
2022/12/11 06:40:07;;;;;;;67.88;24.33;;;1.30;99.90;;;;;;5074701;28;20115;-81
2022/12/11 06:42:33;;;;;;;63.45;23.42;;;0.30;99.90;;;;;;5074369;28;20079;-82
2022/12/11 06:44:59;;;;;;;68.82;23.65;;;0.30;99.90;;;;;;5088525;28;20048;-83
2022/12/11 06:47:26;;;;;;;60.80;23.08;;;0.30;99.90;;;;;;5066489;28;20047;-83
2022/12/11 06:49:52;;;;;;;70.95;23.70;;;0.30;99.90;;;;;;5079519;28;20052;-81
2022/12/11 06:52:19;;;;;;;63.47;22.63;;;0.30;99.90;;;;;;5070643;28;20078;-82
2022/12/11 06:54:44;;;;;;;71.25;23.58;;;1.20;99.90;;;;;;5081564;28;20476;-81
2022/12/11 06:57:10;;;;;;;68.93;22.70;;;0.30;99.90;;;;;;5061039;28;20044;-82
2022/12/11 06:59:36;;;;;;;67.07;23.05;;;0.30;99.90;;;;;;5060724;28;20040;-81
2022/12/11 07:02:02;;;;;;;68.80;23.05;;;0.30;99.90;;;;;;5083401;28;20059;-83
2022/12/11 07:04:29;;;;;;;62.72;23.52;;;1.00;99.90;;;;;;5085936;28;20052;-81
2022/12/11 07:06:56;;;;;;;59.28;20.63;;;0.30;99.90;;;;;;5095172;28;20050;-82
2022/12/11 07:09:22;;;;;;;63.17;22.17;;;0.30;99.90;;;;;;5081196;28;20198;-82
2022/12/11 07:11:51;;;;;;;61.70;22.17;;;0.30;99.90;;;;;;5096574;28;20181;-81
2022/12/11 07:14:18;;;;;;;61.15;22.02;;;0.30;99.90;;;;;;5089044;28;20063;-81
2022/12/11 07:16:43;;;;;;;60.20;22.23;;;0.30;99.90;;;;;;5091955;28;20461;-81
2022/12/11 07:19:09;;;;;;;58.40;21.45;;;0.30;99.90;;;;;;5090800;28;20043;-82
2022/12/11 07:21:35;;;;;;;58.10;21.00;;;0.30;99.90;;;;;;5076961;28;20075;-80
2022/12/11 07:24:01;;;;;;;54.80;20.23;;;0.30;99.90;;;;;;5096648;28;20035;-81
2022/12/11 07:26:27;;;;;;;54.90;21.15;;;0.30;99.90;;;;;;5086303;28;20561;-81
2022/12/11 07:28:57;;;;;;;54.00;19.33;;;0.60;99.90;;;;;;5077609;28;20071;-82
2022/12/11 07:31:24;;;;;;;51.03;19.35;;;0.50;99.90;;;;;;5076828;28;20101;-81
2022/12/11 07:34:12;;;;;;;54.47;19.98;;;0.50;99.90;;;;;;5078911;28;20122;-81
2022/12/11 07:36:38;;;;;;;58.15;21.30;;;0.60;99.90;;;;;;5096636;28;20058;-80
2022/12/11 07:39:04;;;;;;;57.88;21.10;;;0.50;99.90;;;;;;5090994;28;20407;-82
2022/12/11 07:41:30;;;;;;;56.50;20.92;;;0.40;99.90;;;;;;5070759;28;20043;-80
2022/12/11 07:44:00;;;;;;;58.97;20.65;;;0.50;99.90;;;;;;5096628;28;20063;-81
2022/12/11 07:46:27;;;;;;;54.28;21.00;;;0.50;99.90;;;;;;5109965;28;20114;-79
2022/12/11 07:48:54;;;;;;;57.67;20.50;;;1.50;99.90;;;;;;5073784;28;20040;-79
2022/12/11 07:51:26;;;;;;;49.22;19.30;;;0.50;99.90;;;;;;5076352;28;20051;-80
2022/12/11 07:53:55;;;;;;;53.63;18.75;;;0.50;99.90;;;;;;5084986;28;20056;-80
2022/12/11 07:56:22;;;;;;;50.10;18.45;;;0.50;99.90;;;;;;5091279;28;20068;-80
2022/12/11 07:58:48;;;;;;;53.92;21.42;;;1.20;99.90;;;;;;5080043;28;20043;-80
2022/12/11 08:01:19;;;;;;;57.63;22.05;;;0.50;99.90;;;;;;5078538;28;20059;-80
2022/12/11 08:03:45;;;;;;;56.20;20.52;;;0.40;99.90;;;;;;5078411;28;20040;-80
2022/12/11 08:06:11;;;;;;;59.80;20.77;;;0.60;99.90;;;;;;5073856;28;20115;-82
2022/12/11 08:08:38;;;;;;;51.28;18.25;;;0.50;99.90;;;;;;5081663;28;20059;-79
2022/12/11 08:11:05;;;;;;;52.92;20.40;;;1.20;99.90;;;;;;5056969;28;20119;-80
2022/12/11 08:13:31;;;;;;;56.60;19.65;;;0.50;99.90;;;;;;5092922;28;20047;-81
2022/12/11 08:15:57;;;;;;;54.95;21.58;;;0.50;99.90;;;;;;5069298;28;20491;-80
2022/12/11 08:18:24;;;;;;;58.60;21.70;;;0.50;99.90;;;;;;5093474;28;20043;-81
2022/12/11 08:20:50;;;;;;;60.25;20.40;;;0.40;99.90;;;;;;5088567;28;20048;-80
2022/12/11 08:23:16;;;;;;;58.25;21.25;;;0.40;99.90;;;;;;5071709;28;20047;-81
2022/12/11 08:25:41;;;;;;;62.55;23.77;;;0.40;99.90;;;;;;5057816;28;20092;-80
2022/12/11 08:28:07;;;;;;;67.75;23.20;;;0.50;99.90;;;;;;5093740;28;20475;-79
2022/12/11 08:30:33;;;;;;;61.90;23.77;;;0.40;99.90;;;;;;5074247;28;20054;-79
2022/12/11 08:32:58;;;;;;;70.90;24.70;;;0.40;99.90;;;;;;5078495;28;20058;-79
2022/12/11 08:35:25;;;;;;;72.40;24.73;;;0.40;99.90;;;;;;5075254;28;20130;-79
2022/12/11 08:37:51;;;;;;;59.55;20.00;;;0.40;99.90;;;;;;5070328;28;20137;-80
2022/12/11 08:40:16;;;;;;;60.72;23.02;;;0.40;99.90;;;;;;5090793;28;20105;-80
2022/12/11 08:42:42;;;;;;;57.83;20.92;;;0.40;99.90;;;;;;5082373;28;20044;-80
2022/12/11 08:45:08;;;;;;;54.38;20.65;;;0.50;99.90;;;;;;5047941;28;20071;-81
2022/12/11 08:47:34;;;;;;;59.03;21.77;;;0.50;99.90;;;;;;5073640;28;20051;-80
2022/12/11 08:50:00;;;;;;;64.25;23.50;;;1.20;99.90;;;;;;5069562;28;20522;-81
2022/12/11 08:52:26;;;;;;;64.93;23.55;;;0.40;99.90;;;;;;5071337;28;20047;-80
2022/12/11 08:54:51;;;;;;;62.83;22.85;;;0.40;99.90;;;;;;5092538;28;20044;-80
2022/12/11 08:57:17;;;;;;;59.95;22.67;;;0.60;99.90;;;;;;5072997;28;20377;-83
2022/12/11 08:59:43;;;;;;;62.47;21.42;;;0.60;99.90;;;;;;5070992;28;20114;-78
2022/12/11 09:02:11;;;;;;;61.72;21.88;;;0.50;99.90;;;;;;5093401;28;20039;-80
2022/12/11 09:04:37;;;;;;;59.35;21.35;;;0.50;99.90;;;;;;5082297;28;20051;-80
2022/12/11 09:07:03;;;;;;;62.28;22.45;;;0.50;99.90;;;;;;5082925;28;20066;-80
2022/12/11 09:09:31;;;;;;;63.20;23.02;;;0.50;99.90;;;;;;5088269;28;20048;-80
2022/12/11 09:11:58;;;;;;;65.88;21.00;;;0.50;99.90;;;;;;5084639;28;20056;-79
2022/12/11 09:14:23;;;;;;;47.80;17.08;;;0.50;99.90;;;;;;5059382;28;20055;-81
2022/12/11 09:16:49;;;;;;;36.20;14.18;;;0.60;99.90;;;;;;5072395;28;20055;-80
2022/12/11 09:19:16;;;;;;;43.10;17.40;;;0.60;99.90;;;;;;5073247;28;20423;-78
2022/12/11 09:21:43;;;;;;;51.33;19.27;;;0.60;99.90;;;;;;5086328;28;20058;-79
2022/12/11 09:24:11;;;;;;;54.40;19.85;;;0.60;99.90;;;;;;5060667;28;20083;-78
2022/12/11 09:26:37;;;;;;;47.58;18.35;;;0.60;99.90;;;;;;5081208;28;20464;-80
2022/12/11 09:29:04;;;;;;;60.92;22.38;;;1.40;99.90;;;;;;5078807;28;20043;-80
2022/12/11 09:31:32;;;;;;;58.42;22.05;;;0.50;99.90;;;;;;5093167;28;20122;-80
2022/12/11 09:34:01;;;;;;;40.58;14.95;;;0.50;99.90;;;;;;5076492;28;20078;-81
2022/12/11 09:36:27;;;;;;;43.50;16.77;;;0.60;99.90;;;;;;5080151;28;20135;-78
2022/12/11 09:38:53;;;;;;;49.05;19.33;;;0.60;99.90;;;;;;5078554;28;20419;-79
2022/12/11 09:41:22;;;;;;;47.58;18.98;;;0.60;99.90;;;;;;5094840;28;20917;-80
2022/12/11 09:44:25;;;;;;;54.03;20.83;;;1.30;99.90;;;;;;5085368;28;20101;-80
2022/12/11 09:46:50;;;;;;;57.33;21.38;;;0.60;99.90;;;;;;5074663;28;20127;-79
2022/12/11 09:49:36;;;;;;;56.30;21.20;;;0.60;99.90;;;;;;5069079;28;20131;-78
2022/12/11 09:52:10;;;;;;;55.58;22.05;;;0.60;99.90;;;;;;5092395;28;20044;-78
2022/12/11 09:54:39;;;;;;;60.63;23.35;;;0.60;99.90;;;;;;5091356;28;20070;-80
2022/12/11 09:57:25;;;;;;;57.63;22.05;;;0.70;99.90;;;;;;5075193;28;20101;-79
2022/12/11 10:00:30;;;;;;;64.00;25.38;;;0.90;99.90;;;;;;5089267;28;20050;-79
2022/12/11 10:03:29;;;;;;;60.97;22.55;;;0.50;99.90;;;;;;5091183;28;20499;-79
2022/12/11 10:06:05;;;;;;;60.63;22.13;;;0.50;99.90;;;;;;5086512;28;20048;-80
2022/12/11 10:08:39;;;;;;;72.30;25.77;;;0.60;99.90;;;;;;5082908;28;20079;-80
2022/12/11 10:11:19;;;;;;;56.10;23.20;;;0.60;99.90;;;;;;5082955;28;20480;-79
2022/12/11 10:13:47;;;;;;;54.60;22.38;;;0.60;99.90;;;;;;5076817;28;20075;-79
2022/12/11 10:16:22;;;;;;;54.42;20.48;;;1.00;99.90;;;;;;5087417;28;20138;-81
2022/12/11 10:18:48;;;;;;;60.03;23.85;;;0.60;99.90;;;;;;5083913;28;20036;-78
2022/12/11 10:21:16;;;;;;;62.38;24.75;;;0.60;99.90;;;;;;5091642;28;20382;-79
2022/12/11 10:23:49;;;;;;;66.28;26.58;;;0.60;99.90;;;;;;5095366;28;20055;-80
2022/12/11 10:26:18;;;;;;;;;;;0.60;99.90;;;;;;5062292;28;20118;-79
2022/12/11 10:28:44;;;;;;;65.32;24.50;;;0.00;99.90;;;;;;5091601;28;20287;-78
2022/12/11 10:31:27;;;;;;;70.47;25.35;;;0.50;99.90;;;;;;5093326;28;20043;-78
2022/12/11 10:34:03;;;;;;;65.47;24.17;;;0.60;99.90;;;;;;5079430;28;20051;-81
2022/12/11 10:36:33;;;;;;;65.03;25.23;;;0.60;99.90;;;;;;5089550;28;20048;-80
2022/12/11 10:38:59;;;;;;;65.60;25.42;;;0.70;99.90;;;;;;5070456;28;20050;-79
2022/12/11 10:41:41;;;;;;;58.20;24.80;;;0.60;99.90;;;;;;5096515;28;20036;-74
2022/12/11 10:44:33;;;;;;;63.33;23.85;;;0.70;99.90;;;;;;5098237;28;20170;-78
2022/12/11 10:47:10;;;;;;;60.35;24.05;;;0.70;99.90;;;;;;5064222;28;20139;-78
2022/12/11 10:49:37;;;;;;;57.25;22.98;;;0.70;99.90;;;;;;5092566;28;20085;-78
2022/12/11 10:52:24;;;;;;;63.50;24.40;;;0.70;99.90;;;;;;5064844;28;20046;-78
2022/12/11 10:55:17;;;;;;;57.45;24.13;;;1.30;99.90;;;;;;5094743;28;20047;-79
2022/12/11 10:57:44;;;;;;;50.80;20.38;;;0.70;99.90;;;;;;5070038;28;20048;-78
2022/12/11 11:00:38;;;;;;;54.05;21.23;;;0.70;99.90;;;;;;5042496;28;20075;-78
2022/12/11 11:03:24;;;;;;;60.78;23.63;;;0.70;99.90;;;;;;5071477;28;20054;-78
2022/12/11 11:06:05;;;;;;;55.45;22.92;;;0.70;99.90;;;;;;5057673;28;20049;-78
2022/12/11 11:08:41;;;;;;;58.28;23.95;;;0.70;99.90;;;;;;5074535;28;20133;-78
2022/12/11 11:11:26;;;;;;;56.85;23.90;;;0.70;99.90;;;;;;5050463;28;20052;-78
2022/12/11 11:14:04;;;;;;;54.30;21.23;;;0.70;99.90;;;;;;5059958;28;20048;-79
2022/12/11 11:16:30;;;;;;;58.63;23.90;;;0.70;99.90;;;;;;5056287;28;20508;-78
2022/12/11 11:18:57;;;;;;;60.08;24.50;;;0.70;99.90;;;;;;5043743;28;20044;-79
2022/12/11 11:21:25;;;;;;;56.17;22.65;;;1.20;99.90;;;;;;5072619;28;20058;-78
2022/12/11 11:23:52;;;;;;;60.97;24.85;;;1.20;99.90;;;;;;5075978;28;20046;-78
2022/12/11 11:26:20;;;;;;;61.30;24.55;;;0.70;99.90;;;;;;5037655;28;20052;-79
2022/12/11 11:28:55;;;;;;;51.53;21.05;;;0.80;99.90;;;;;;5077365;28;20105;-78
2022/12/11 11:31:31;;;;;;;51.67;22.48;;;0.80;99.90;;;;;;5077296;28;20054;-79
2022/12/11 11:33:58;;;;;;;45.85;19.08;;;0.80;99.90;;;;;;5048020;28;20048;-79
2022/12/11 11:36:27;;;;;;;49.28;20.88;;;0.80;99.90;;;;;;5057954;28;20058;-77
2022/12/11 11:39:17;;;;;;;52.20;22.40;;;0.80;99.90;;;;;;5077366;28;20136;-77
2022/12/11 11:41:56;;;;;;;48.20;21.30;;;0.80;99.90;;;;;;5040413;28;20044;-78
2022/12/11 11:44:58;;;;;;;52.92;22.15;;;0.80;99.90;;;;;;5057178;28;20405;-78
2022/12/11 11:47:34;;;;;;;50.22;20.63;;;0.80;99.90;;;;;;5068516;28;20142;-78
2022/12/11 11:50:08;;;;;;;48.95;21.23;;;1.30;99.90;;;;;;5077258;28;20044;-78
2022/12/11 11:52:37;;;;;;;54.28;20.75;;;0.80;99.90;;;;;;5073025;28;20408;-78
2022/12/11 11:55:19;;;;;;;53.50;22.17;;;0.80;99.90;;;;;;5056371;28;20047;-78
2022/12/11 11:57:59;;;;;;;50.58;21.17;;;0.80;99.90;;;;;;5093744;28;20056;-77
2022/12/11 12:00:28;;;;;;;52.55;22.50;;;1.30;99.90;;;;;;5083489;28;20173;-79
2022/12/11 12:02:58;;;;;;;54.97;22.65;;;0.80;99.90;;;;;;5071286;28;20044;-78
2022/12/11 12:05:47;;;;;;;54.90;21.92;;;1.30;99.90;;;;;;5077185;28;20048;-77
2022/12/11 12:08:28;;;;;;;57.33;23.45;;;0.80;99.90;;;;;;5072865;28;20101;-78
2022/12/11 12:11:24;;;;;;;58.75;24.33;;;0.80;99.90;;;;;;5076474;28;20499;-78
2022/12/11 12:14:12;;;;;;;56.28;23.55;;;0.80;99.90;;;;;;5037959;28;20500;-77
2022/12/11 12:16:53;;;;;;;55.75;23.08;;;0.80;99.90;;;;;;5059444;28;20127;-77
2022/12/11 12:19:53;;;;;;;58.42;23.45;;;0.80;99.90;;;;;;5084636;28;20051;-77
2022/12/11 12:22:49;;;;;;;59.35;23.17;;;0.80;99.90;;;;;;5050389;28;20098;-77
2022/12/11 12:25:51;;;;;;;58.22;23.50;;;0.80;99.90;;;;;;5074889;28;20130;-76
2022/12/11 12:28:44;;;;;;;56.45;23.35;;;0.80;99.90;;;;;;5085460;28;20059;-77
2022/12/11 12:31:35;;;;;;;66.88;24.23;;;0.90;99.90;;;;;;5093997;28;20048;-77
2022/12/11 12:34:03;;;;;;;56.28;23.35;;;0.80;99.90;;;;;;5091154;28;20456;-77
2022/12/11 12:37:20;;;;;;;67.32;25.75;;;0.80;99.90;;;;;;5071968;28;20040;-77
2022/12/11 12:40:10;;;;;;;56.10;22.27;;;0.80;99.90;;;;;;5014182;28;20068;-77
2022/12/11 12:43:03;;;;;;;52.60;21.05;;;0.90;99.90;;;;;;5011107;28;20720;-77
2022/12/11 12:46:21;;;;;;;59.33;24.75;;;0.90;99.90;;;;;;5082918;28;20070;-76
2022/12/11 12:48:49;;;;;;;64.95;24.38;;;0.90;99.90;;;;;;4984242;28;20045;-77
2022/12/11 12:51:16;;;;;;;61.90;24.95;;;0.90;99.90;;;;;;4975849;28;20088;-77
2022/12/11 12:53:51;;;;;;;59.20;24.70;;;1.50;99.90;;;;;;5041141;28;20143;-76
2022/12/11 12:56:19;;;;;;;60.90;25.02;;;0.90;99.90;;;;;;5089930;28;20134;-76
2022/12/11 12:58:45;;;;;;;63.88;25.77;;;0.90;99.90;;;;;;5095698;28;20047;-77
2022/12/11 13:01:26;;;;;;;62.78;25.67;;;0.90;99.90;;;;;;5082886;28;20052;-77
2022/12/11 13:04:00;;;;;;;68.72;27.38;;;0.90;99.90;;;;;;5090845;28;20047;-77
2022/12/11 13:06:43;;;;;;;61.20;26.48;;;0.90;99.90;;;;;;5091187;28;20039;-77